Time;durP1;ratioP1;P1;durP2;ratioP2;P2;SDS_P1;SDS_P2;PMS_P1;PMS_P2;Temp;Humidity;BMP_temperature;BMP_pressure;BME280_temperature;BME280_humidity;BME280_pressure;Samples;Min_cycle;Max_cycle;Signal;HPM_P1;HPM_P2
2023/07/18 00:02:06;;;;;;;;;;;23.30;47.10;;;19.41;82.99;96039.84;5013107;28;19909;-44
2023/07/18 00:04:34;;;;;;;;;;;23.20;47.30;;;19.37;84.50;96041.56;5012112;28;19921;-45
2023/07/18 00:07:00;;;;;;;;;;;23.10;47.30;;;19.34;85.14;96030.59;5011392;28;19956;-44
2023/07/18 00:09:25;;;;;;;;;;;23.10;47.50;;;19.30;85.42;96024.19;5009777;28;19909;-45
2023/07/18 00:11:51;;;;;;;;;;;23.00;47.60;;;19.25;85.98;96029.75;5012314;28;19909;-45
2023/07/18 00:14:17;;;;;;;;;;;23.00;47.70;;;19.20;86.29;96036.06;5011224;28;19913;-47
2023/07/18 00:16:46;;;;;;;;;;;23.00;47.90;;;19.15;86.51;96028.91;4999336;28;19940;-44
2023/07/18 00:19:12;;;;;;;;;;;22.90;47.90;;;19.11;86.68;96027.91;5012289;28;19913;-47
2023/07/18 00:21:41;;;;;;;;;;;22.90;48.10;;;19.08;86.64;96033.13;5012663;28;19909;-50
2023/07/18 00:24:07;;;;;;;;;;;22.90;48.20;;;19.07;86.77;96031.53;5011538;28;20337;-44
2023/07/18 00:26:34;;;;;;;;;;;22.80;48.30;;;19.03;86.25;96030.56;5012132;28;19909;-45
2023/07/18 00:29:00;;;;;;;;;;;22.80;48.40;;;19.00;87.46;96026.56;5011337;28;19971;-44
2023/07/18 00:31:26;;;;;;;;;;;22.80;48.50;;;18.98;87.55;96025.28;5012594;28;19913;-46
2023/07/18 00:33:52;;;;;;;;;;;22.80;48.70;;;18.94;86.34;96023.19;5012326;28;19917;-45
2023/07/18 00:36:18;;;;;;;;;;;22.70;48.70;;;18.94;87.27;96033.19;5011175;28;20295;-45
2023/07/18 00:38:44;;;;;;;;;;;22.70;48.80;;;18.93;87.45;96032.41;5011692;28;19913;-44
2023/07/18 00:41:11;;;;;;;;;;;22.70;48.90;;;18.94;87.60;96028.59;5010376;28;19916;-44
2023/07/18 00:43:37;;;;;;;;;;;22.70;49.00;;;18.96;88.86;96025.59;5012078;28;20124;-44
2023/07/18 00:46:04;;;;;;;;;;;22.70;49.00;;;18.96;87.56;96020.19;5011617;28;20023;-45
2023/07/18 00:48:34;;;;;;;;;;;22.70;49.20;;;18.94;87.46;96015.09;5011392;28;20398;-44
2023/07/18 00:51:01;;;;;;;;;;;22.70;49.20;;;18.94;88.12;96006.22;5007325;28;19910;-44
2023/07/18 00:53:28;;;;;;;;;;;22.70;49.30;;;18.92;88.32;96011.91;5008280;28;20016;-43
2023/07/18 00:55:55;;;;;;;;;;;22.70;49.40;;;18.92;87.57;96013.81;5007143;28;19909;-45
2023/07/18 00:58:21;;;;;;;;;;;22.70;49.40;;;18.92;87.32;96011.91;5004127;28;19916;-47
2023/07/18 01:00:46;;;;;;;;;;;22.70;49.50;;;18.88;88.14;96010.13;5011057;28;19979;-45
2023/07/18 01:03:13;;;;;;;;;;;22.70;49.60;;;18.86;88.11;96006.94;5011820;28;19928;-45
2023/07/18 01:05:39;;;;;;;;;;;22.60;49.60;;;18.81;89.07;96010.56;5009063;28;20011;-45
2023/07/18 01:08:05;;;;;;;;;;;22.60;50.30;;;18.79;88.25;96012.75;5008336;28;20054;-45
2023/07/18 01:10:31;;;;;;;;;;;22.60;49.80;;;18.77;88.24;96012.28;5009100;28;19909;-44
2023/07/18 01:13:00;;;;;;;;;;;22.60;49.80;;;18.77;89.15;96011.47;5011564;28;19966;-44
2023/07/18 01:15:32;;;;;;;;;;;22.60;49.90;;;18.75;89.22;96008.28;5011222;28;19931;-45
2023/07/18 01:18:02;;;;;;;;;;;22.60;50.00;;;18.71;88.55;96008.88;5010658;28;19931;-46
2023/07/18 01:20:29;;;;;;;;;;;22.50;50.00;;;18.67;88.42;96001.69;5011684;28;19920;-45
2023/07/18 01:22:59;;;;;;;;;;;22.50;50.10;;;18.61;88.61;95998.31;5010640;28;19916;-45
2023/07/18 01:25:25;;;;;;;;;;;22.50;50.20;;;18.56;90.49;96000.34;5026093;28;20366;-47
2023/07/18 01:27:54;;;;;;;;;;;22.40;50.20;;;18.53;90.42;96001.75;5011541;28;19947;-45
2023/07/18 01:30:26;;;;;;;;;;;22.40;50.30;;;18.52;91.28;96000.16;5010325;28;20341;-44
2023/07/18 01:32:54;;;;;;;;;;;22.30;50.40;;;18.37;91.27;95997.81;5011818;28;19941;-44
2023/07/18 01:35:23;;;;;;;;;;;22.30;50.50;;;18.21;88.25;96000.03;5002339;28;19917;-50
2023/07/18 01:37:49;;;;;;;;;;;22.20;50.50;;;18.17;83.47;95994.44;5011538;28;20427;-45
2023/07/18 01:40:20;;;;;;;;;;;22.20;50.60;;;18.23;81.53;95995.91;5009510;28;19945;-45
2023/07/18 01:42:51;;;;;;;;;;;22.10;50.60;;;18.24;81.37;95997.53;5011061;28;20287;-46
2023/07/18 01:45:27;;;;;;;;;;;22.10;50.60;;;18.22;80.01;95990.84;5010879;28;19924;-45
2023/07/18 01:47:56;;;;;;;;;;;22.00;50.60;;;18.13;82.76;95988.06;5010752;28;19909;-44
2023/07/18 01:50:22;;;;;;;;;;;22.00;50.60;;;18.00;84.36;95986.97;5011345;28;20367;-44
2023/07/18 01:52:48;;;;;;;;;;;21.90;50.50;;;17.96;84.88;95988.69;5010413;28;19913;-45
2023/07/18 01:55:14;;;;;;;;;;;21.90;50.60;;;17.94;84.65;95980.09;5010871;28;20318;-45
2023/07/18 01:57:40;;;;;;;;;;;21.80;50.60;;;17.88;85.23;95985.91;5011011;28;20341;-44
2023/07/18 02:00:12;;;;;;;;;;;21.70;50.60;;;17.69;87.24;95984.09;5010459;28;19909;-45
2023/07/18 02:02:39;;;;;;;;;;;21.60;50.60;;;17.52;88.32;95987.38;5006617;28;19975;-47
2023/07/18 02:05:05;;;;;;;;;;;21.60;51.40;;;17.42;88.46;95989.47;5007231;28;19971;-46
2023/07/18 02:07:31;;;;;;;;;;;21.50;50.80;;;17.35;89.28;95985.25;5011129;28;19917;-46
2023/07/18 02:10:00;;;;;;;;;;;21.40;50.90;;;17.21;91.67;95986.34;5005711;28;19913;-45
2023/07/18 02:12:26;;;;;;;;;;;21.30;51.00;;;17.04;93.09;95982.31;5010372;28;19948;-45
2023/07/18 02:14:52;;;;;;;;;;;21.20;51.70;;;17.08;91.77;95990.63;5011164;28;19909;-46
2023/07/18 02:17:18;;;;;;;;;;;21.10;51.20;;;16.99;92.34;95987.00;5009963;28;19915;-49
2023/07/18 02:19:44;;;;;;;;;;;21.00;51.40;;;16.95;92.04;95983.28;5010923;28;19913;-53
2023/07/18 02:22:10;;;;;;;;;;;20.90;51.50;;;16.95;91.91;95980.59;5011272;28;19909;-47
2023/07/18 02:24:36;;;;;;;;;;;20.90;51.60;;;16.93;91.46;95980.13;5010108;28;20414;-47
2023/07/18 02:27:02;;;;;;;;;;;20.90;51.80;;;16.90;91.07;95975.31;5010958;28;19909;-46
2023/07/18 02:29:28;;;;;;;;;;;20.80;51.80;;;16.95;89.99;95981.38;5010118;28;20269;-49
2023/07/18 02:31:54;;;;;;;;;;;20.80;51.90;;;16.96;88.47;95977.63;5010823;28;19932;-47
2023/07/18 02:34:19;;;;;;;;;;;20.80;52.00;;;16.97;87.70;95979.22;5010470;28;20306;-49
2023/07/18 02:36:46;;;;;;;;;;;20.70;52.00;;;16.98;87.82;95974.63;5010105;28;19909;-45
2023/07/18 02:39:12;;;;;;;;;;;20.70;52.00;;;16.96;87.94;95972.25;5008674;28;19915;-47
2023/07/18 02:41:38;;;;;;;;;;;20.70;52.10;;;16.92;87.85;95976.59;5012577;28;19910;-50
2023/07/18 02:44:06;;;;;;;;;;;20.70;52.10;;;16.90;88.09;95975.31;5014388;28;19909;-44
2023/07/18 02:46:33;;;;;;;;;;;20.70;52.20;;;16.87;88.11;95972.13;5012822;28;20000;-47
2023/07/18 02:48:58;;;;;;;;;;;20.70;52.20;;;16.84;88.24;95969.22;5014219;28;20316;-47
2023/07/18 02:51:24;;;;;;;;;;;20.70;52.20;;;16.77;88.17;95969.59;5014399;28;19991;-48
2023/07/18 02:53:52;;;;;;;;;;;20.60;52.20;;;16.72;87.57;95971.53;5013219;28;20260;-45
2023/07/18 02:56:18;;;;;;;;;;;20.60;52.30;;;16.71;87.42;95976.13;5013637;28;19916;-48
2023/07/18 02:58:44;;;;;;;;;;;20.60;52.40;;;16.69;86.84;95970.22;5012051;28;19924;-43
2023/07/18 03:01:11;;;;;;;;;;;20.50;52.40;;;16.69;86.03;95969.44;5014042;28;19908;-46
2023/07/18 03:03:40;;;;;;;;;;;20.50;52.40;;;16.69;86.17;95970.22;5014097;28;20317;-52
2023/07/18 03:06:09;;;;;;;;;;;20.50;52.40;;;16.69;87.07;95974.81;5012528;28;19927;-45
2023/07/18 03:08:36;;;;;;;;;;;20.50;52.40;;;16.60;86.73;95967.41;5012490;28;19909;-49
2023/07/18 03:11:05;;;;;;;;;;;20.40;52.90;;;16.57;86.88;95962.63;5007751;28;20368;-48
2023/07/18 03:13:31;;;;;;;;;;;20.40;52.30;;;16.49;86.27;95970.56;5013845;28;19940;-46
2023/07/18 03:15:57;;;;;;;;;;;20.40;52.40;;;16.47;85.96;95967.38;5013272;28;19978;-48
2023/07/18 03:18:23;;;;;;;;;;;20.40;52.40;;;16.43;87.14;95970.63;5012676;28;19909;-46
2023/07/18 03:20:49;;;;;;;;;;;20.30;52.40;;;16.37;87.67;95968.31;5013610;28;19909;-47
2023/07/18 03:23:15;;;;;;;;;;;20.30;52.40;;;16.30;87.90;95966.00;5012623;28;19913;-48
2023/07/18 03:25:41;;;;;;;;;;;20.20;52.40;;;16.25;88.28;95963.38;5012917;28;20298;-45
2023/07/18 03:28:09;;;;;;;;;;;20.20;52.40;;;16.18;87.47;95957.56;5013761;28;20359;-47
2023/07/18 03:30:36;;;;;;;;;;;20.10;52.50;;;16.13;87.61;95953.06;5012631;28;19951;-52
2023/07/18 03:33:02;;;;;;;;;;;20.10;52.50;;;16.11;86.97;95955.25;5013696;28;19912;-52
2023/07/18 03:35:28;;;;;;;;;;;20.10;52.60;;;16.12;87.54;95964.91;5012023;28;19913;-48
2023/07/18 03:37:54;;;;;;;;;;;20.00;52.70;;;16.09;86.91;95962.78;5013453;28;19955;-52
2023/07/18 03:40:19;;;;;;;;;;;20.00;52.70;;;16.07;87.73;95956.09;5011703;28;19909;-52
2023/07/18 03:42:45;;;;;;;;;;;20.00;52.70;;;16.05;87.70;95959.09;5012773;28;19909;-50
2023/07/18 03:45:13;;;;;;;;;;;20.00;52.80;;;16.03;86.78;95960.47;5012451;28;19956;-53
2023/07/18 03:47:43;;;;;;;;;;;19.90;52.80;;;16.04;86.35;95956.69;5012530;28;20260;-51
2023/07/18 03:50:12;;;;;;;;;;;20.00;52.80;;;16.07;86.05;95950.72;5013314;28;19980;-47
2023/07/18 03:52:39;;;;;;;;;;;19.90;52.80;;;16.09;85.74;95952.03;5011703;28;19915;-48
2023/07/18 03:55:06;;;;;;;;;;;20.00;52.80;;;16.11;85.11;95949.09;5012826;28;19909;-48
2023/07/18 03:57:33;;;;;;;;;;;20.00;52.80;;;16.13;85.17;95955.75;5013016;28;19974;-48
2023/07/18 03:59:59;;;;;;;;;;;20.00;52.90;;;16.17;84.64;95954.09;5010701;28;19909;-49
2023/07/18 04:02:26;;;;;;;;;;;20.10;52.90;;;16.23;84.79;95944.03;5012891;28;19915;-50
2023/07/18 04:04:52;;;;;;;;;;;20.10;53.00;;;16.30;84.63;95938.31;5011124;28;19921;-48
2023/07/18 04:07:20;;;;;;;;;;;20.10;52.90;;;16.32;83.67;95936.91;5035752;22;26631;-45
2023/07/18 04:09:46;;;;;;;;;;;20.20;52.90;;;16.38;81.58;95937.66;5020978;28;19916;-46
2023/07/18 04:12:13;;;;;;;;;;;20.20;52.90;;;16.45;81.61;95940.75;5022723;28;20350;-46
2023/07/18 04:14:43;;;;;;;;;;;20.20;52.80;;;16.46;81.42;95938.88;5029526;28;19913;-46
2023/07/18 04:17:09;;;;;;;;;;;20.30;52.80;;;16.47;81.47;95940.47;5020345;28;19910;-49
2023/07/18 04:19:35;;;;;;;;;;;20.30;52.70;;;16.46;81.11;95944.28;5027498;28;19909;-45
2023/07/18 04:22:01;;;;;;;;;;;20.40;52.60;;;16.43;81.54;95935.69;5033254;28;20277;-46
2023/07/18 04:24:27;;;;;;;;;;;20.40;52.50;;;16.43;81.31;95941.06;5019180;28;20035;-46
2023/07/18 04:26:52;;;;;;;;;;;20.40;52.50;;;16.43;81.09;95934.88;5033175;28;20016;-46
2023/07/18 04:29:19;;;;;;;;;;;20.40;52.50;;;16.38;80.83;95932.28;5028674;28;19916;-46
2023/07/18 04:31:45;;;;;;;;;;;20.40;53.00;;;16.39;80.82;95928.50;5028617;28;20458;-46
2023/07/18 04:34:11;;;;;;;;;;;20.40;52.30;;;16.40;80.49;95933.59;5029761;28;19913;-47
2023/07/18 04:36:37;;;;;;;;;;;20.40;52.30;;;16.50;81.13;95929.94;5025283;28;19916;-46
2023/07/18 04:39:03;;;;;;;;;;;20.40;52.20;;;16.65;80.32;95937.75;5021917;28;19909;-46
2023/07/18 04:41:29;;;;;;;;;;;20.50;52.30;;;16.82;80.02;95933.75;5017885;28;20389;-49
2023/07/18 04:43:55;;;;;;;;;;;20.60;52.20;;;16.98;80.15;95926.19;5029866;28;19909;-46
2023/07/18 04:46:21;;;;;;;;;;;20.70;52.20;;;17.05;80.96;95921.25;5032656;28;20371;-49
2023/07/18 04:48:46;;;;;;;;;;;20.80;52.10;;;17.15;78.73;95910.28;5029950;28;20315;-50
2023/07/18 04:51:14;;;;;;;;;;;20.90;52.00;;;17.25;76.40;95910.06;5032773;28;19915;-48
2023/07/18 04:53:40;;;;;;;;;;;21.00;51.90;;;17.41;76.19;95915.16;5024502;28;20378;-50
2023/07/18 04:56:07;;;;;;;;;;;21.10;51.80;;;17.57;76.11;95914.53;5032381;28;20008;-46
2023/07/18 04:58:33;;;;;;;;;;;21.20;51.70;;;17.77;76.45;95921.47;5030087;28;19935;-49
2023/07/18 05:00:59;;;;;;;;;;;21.40;51.60;;;17.94;74.84;95930.81;5023397;28;19912;-48
2023/07/18 05:03:26;;;;;;;;;;;21.50;51.50;;;18.09;75.54;95921.59;5032389;28;19913;-47
2023/07/18 05:05:53;;;;;;;;;;;21.70;51.40;;;18.30;75.24;95919.19;5027367;28;19913;-50
2023/07/18 05:08:19;;;;;;;;;;;21.90;51.30;;;18.48;73.83;95920.94;5021705;28;19917;-47
2023/07/18 05:10:46;;;;;;;;;;;22.00;51.20;;;18.63;72.99;95915.16;5003314;28;19923;-51
2023/07/18 05:13:11;;;;;;;;;;;22.30;51.10;;;18.78;73.00;95918.63;5026729;28;20374;-48
2023/07/18 05:15:37;;;;;;;;;;;22.40;50.90;;;18.93;72.57;95920.94;5030680;28;19955;-49
2023/07/18 05:18:04;;;;;;;;;;;22.60;50.70;;;19.07;70.96;95918.94;5018153;28;19935;-47
2023/07/18 05:20:30;;;;;;;;;;;22.90;50.60;;;19.23;71.15;95905.81;5031575;28;19919;-50
2023/07/18 05:22:56;;;;;;;;;;;23.00;50.40;;;19.44;69.04;95910.69;5027420;28;20275;-46
2023/07/18 05:25:21;;;;;;;;;;;23.20;50.20;;;19.46;67.91;95903.03;5020334;28;19919;-48
2023/07/18 05:27:47;;;;;;;;;;;23.40;50.00;;;19.61;68.69;95898.00;5030828;28;19999;-46
2023/07/18 05:30:17;;;;;;;;;;;23.60;49.80;;;19.80;67.77;95891.56;5017977;28;19969;-46
2023/07/18 05:32:44;;;;;;;;;;;23.70;49.60;;;19.97;67.76;95897.00;5031164;28;19909;-46
2023/07/18 05:35:13;;;;;;;;;;;23.90;49.50;;;20.12;67.63;95898.44;5023958;28;20283;-49
2023/07/18 05:37:41;;;;;;;;;;;24.10;49.30;;;20.29;67.00;95889.53;5011731;28;19908;-52
2023/07/18 05:40:11;;;;;;;;;;;24.30;49.10;;;20.46;66.43;95892.19;5041433;28;19908;-47
2023/07/18 05:42:38;;;;;;;;;;;24.50;49.00;;;20.60;66.90;95889.34;5027187;28;19909;-47
2023/07/18 05:45:07;;;;;;;;;;;24.70;48.90;;;20.82;66.88;95898.41;5016680;28;19913;-54
2023/07/18 05:47:34;;;;;;;;;;;24.90;48.70;;;20.97;65.99;95901.38;5023166;28;19912;-48
2023/07/18 05:50:04;;;;;;;;;;;25.10;48.60;;;21.16;65.33;95901.00;5029469;28;20019;-51
2023/07/18 05:52:31;;;;;;;;;;;25.30;48.50;;;21.13;64.88;95900.84;5029415;28;19909;-52
2023/07/18 05:54:57;;;;;;;;;;;25.40;48.30;;;21.21;64.29;95906.22;5023268;28;19909;-49
2023/07/18 05:57:23;;;;;;;;;;;25.50;48.20;;;21.13;64.39;95898.16;5030416;28;19908;-47
2023/07/18 05:59:49;;;;;;;;;;;25.50;48.10;;;20.98;64.70;95902.16;5018676;28;19913;-48
2023/07/18 06:02:16;;;;;;;;;;;25.50;47.90;;;21.08;65.32;95899.09;5029538;28;20380;-49
2023/07/18 06:04:42;;;;;;;;;;;25.60;47.80;;;21.21;64.31;95892.69;5028248;28;19917;-49
2023/07/18 06:07:08;;;;;;;;;;;25.80;47.70;;;21.41;62.81;95885.78;5028699;28;19986;-52
2023/07/18 06:09:34;;;;;;;;;;;26.00;47.60;;;21.71;62.75;95885.78;5027721;28;19955;-49
2023/07/18 06:12:00;;;;;;;;;;;26.20;47.50;;;21.97;62.30;95898.34;5017087;28;20355;-47
2023/07/18 06:14:26;;;;;;;;;;;26.50;47.30;;;22.25;61.32;95893.22;5012792;28;19944;-49
2023/07/18 06:16:52;;;;;;;;;;;26.70;47.20;;;22.46;59.87;95888.59;5014068;28;19919;-47
2023/07/18 06:19:18;;;;;;;;;;;27.00;47.00;;;22.73;60.06;95887.22;5034131;28;19928;-54
2023/07/18 06:21:44;;;;;;;;;;;27.30;46.80;;;22.99;58.68;95889.69;5031921;28;20030;-53
2023/07/18 06:24:09;;;;;;;;;;;27.70;46.70;;;23.24;58.71;95895.16;5021654;28;19957;-59
2023/07/18 06:26:35;;;;;;;;;;;28.00;46.40;;;23.50;57.01;95883.94;5022109;28;20485;-51
2023/07/18 06:29:01;;;;;;;;;;;28.30;46.10;;;23.62;55.97;95883.16;5032586;28;19915;-47
2023/07/18 06:31:28;;;;;;;;;;;28.60;45.80;;;23.62;55.43;95888.59;5029592;28;20237;-47
2023/07/18 06:33:54;;;;;;;;;;;28.80;45.50;;;23.44;55.85;95882.59;5022090;28;20013;-47
2023/07/18 06:36:21;;;;;;;;;;;28.90;45.00;;;23.58;56.02;95880.34;5032030;28;19913;-48
2023/07/18 06:38:47;;;;;;;;;;;29.00;44.70;;;23.76;56.19;95875.47;5027538;28;20438;-47
2023/07/18 06:41:12;;;;;;;;;;;29.20;44.50;;;23.83;54.73;95867.53;5021101;28;19916;-48
2023/07/18 06:43:39;;;;;;;;;;;29.30;44.30;;;23.56;55.76;95866.28;5017793;28;19909;-51
2023/07/18 06:46:05;;;;;;;;;;;29.40;44.10;;;23.75;55.45;95863.00;5027639;28;20443;-50
2023/07/18 06:48:31;;;;;;;;;;;29.50;43.90;;;23.98;55.79;95863.31;5022626;28;20003;-49
2023/07/18 06:50:59;;;;;;;;;;;29.60;43.90;;;24.14;54.04;95861.44;5034209;28;19916;-47
2023/07/18 06:53:25;;;;;;;;;;;29.70;44.30;;;23.99;54.58;95859.44;5037781;28;19916;-50
2023/07/18 06:55:51;;;;;;;;;;;29.90;43.50;;;23.84;54.92;95869.09;5021701;28;19952;-54
2023/07/18 06:58:17;;;;;;;;;;;30.00;43.30;;;23.82;54.97;95860.53;5033484;28;19975;-48
2023/07/18 07:00:45;;;;;;;;;;;30.10;43.20;;;23.78;55.75;95860.41;5029236;28;20251;-50
2023/07/18 07:03:11;;;;;;;;;;;30.10;42.90;;;23.47;56.34;95858.25;5033523;28;19959;-48
2023/07/18 07:05:42;;;;;;;;;;;30.20;42.80;;;23.94;55.94;95846.91;5024089;28;19952;-48
2023/07/18 07:08:10;;;;;;;;;;;30.30;42.70;;;24.35;54.42;95841.41;5028987;28;19916;-49
2023/07/18 07:10:37;;;;;;;;;;;30.40;42.60;;;24.54;54.46;95847.03;5011363;28;20355;-48
2023/07/18 07:13:03;;;;;;;;;;;30.50;42.50;;;24.97;52.59;95850.09;5021132;28;19909;-49
2023/07/18 07:15:30;;;;;;;;;;;30.70;42.40;;;24.73;53.09;95842.88;5023668;28;19909;-49
2023/07/18 07:17:56;;;;;;;;;;;30.90;42.30;;;24.79;52.92;95842.25;5027545;28;19908;-47
2023/07/18 07:20:24;;;;;;;;;;;31.00;42.00;;;24.85;53.06;95838.13;5033300;28;20359;-48
2023/07/18 07:22:52;;;;;;;;;;;31.20;41.80;;;24.83;52.47;95839.63;5029146;28;20820;-49
2023/07/18 07:25:18;;;;;;;;;;;31.30;41.60;;;24.79;52.95;95836.00;5027470;28;19912;-49
2023/07/18 07:27:44;;;;;;;;;;;31.30;41.40;;;25.13;52.01;95845.47;5031816;28;19909;-50
2023/07/18 07:30:15;;;;;;;;;;;31.50;41.30;;;25.34;51.67;95832.34;5019779;28;20634;-49
2023/07/18 07:32:47;;;;;;;;;;;31.60;41.20;;;25.20;52.01;95831.25;5033364;28;20003;-53
2023/07/18 07:35:16;;;;;;;;;;;31.70;41.10;;;25.56;50.27;95827.41;5028948;28;19915;-48
2023/07/18 07:37:42;;;;;;;;;;;31.80;40.80;;;25.90;50.11;95827.78;5031664;28;19947;-50
2023/07/18 07:40:12;;;;;;;;;;;31.90;40.60;;;25.94;49.49;95820.44;5018780;28;19948;-58
2023/07/18 07:42:39;;;;;;;;;;;32.10;40.50;;;26.43;48.41;95817.16;5024632;28;19920;-55
2023/07/18 07:45:06;;;;;;;;;;;32.30;40.40;;;26.61;48.14;95815.59;5033142;28;19916;-48
2023/07/18 07:47:33;;;;;;;;;;;32.50;40.10;;;26.89;48.01;95814.50;5014706;28;20280;-48
2023/07/18 07:49:59;;;;;;;;;;;32.70;40.00;;;27.11;46.59;95815.66;5028724;28;19916;-48
2023/07/18 07:52:24;;;;;;;;;;;32.90;39.80;;;27.35;45.64;95800.81;5020553;28;20359;-50
2023/07/18 07:54:50;;;;;;;;;;;33.00;39.50;;;27.41;45.70;95794.66;5018036;28;19916;-53
2023/07/18 07:57:16;;;;;;;;;;;33.20;39.90;;;27.22;45.58;95798.28;5017432;28;20030;-48
2023/07/18 07:59:43;;;;;;;;;;;33.40;39.10;;;27.62;45.01;95801.63;5019599;28;19916;-53
2023/07/18 08:02:10;;;;;;;;;;;33.60;39.60;;;27.96;43.86;95799.78;5019964;28;20367;-49
2023/07/18 08:04:37;;;;;;;;;;;33.70;38.70;;;28.18;43.39;95808.25;5019500;28;20286;-50
2023/07/18 08:07:03;;;;;;;;;;;34.00;38.60;;;28.22;44.44;95804.38;5019291;28;19923;-49
2023/07/18 08:09:29;;;;;;;;;;;34.20;38.40;;;28.54;42.24;95798.50;5013477;28;20015;-48
2023/07/18 08:11:55;;;;;;;;;;;34.40;38.20;;;28.90;40.41;95801.59;5021168;28;19917;-48
2023/07/18 08:14:21;;;;;;;;;;;34.60;37.90;;;29.28;41.74;95792.16;5018867;28;19915;-49
2023/07/18 08:16:48;;;;;;;;;;;34.90;37.80;;;29.59;40.30;95796.28;5021059;28;19955;-58
2023/07/18 08:19:15;;;;;;;;;;;35.20;37.60;;;28.90;40.84;95796.13;5023756;28;20440;-49
2023/07/18 08:21:41;;;;;;;;;;;35.40;37.20;;;28.42;42.69;95787.81;5014475;28;20355;-51
2023/07/18 08:24:07;;;;;;;;;;;35.50;36.80;;;29.07;41.46;95790.03;5020529;28;19967;-52
2023/07/18 08:26:33;;;;;;;;;;;35.70;36.80;;;29.60;40.70;95791.59;5024496;28;19924;-50
2023/07/18 08:28:59;;;;;;;;;;;35.80;36.60;;;30.20;41.03;95788.41;5020244;28;19919;-53
2023/07/18 08:31:24;;;;;;;;;;;36.10;36.50;;;30.57;39.01;95781.84;5021661;28;19909;-51
2023/07/18 08:33:50;;;;;;;;;;;36.30;36.20;;;30.53;38.50;95784.59;5026600;28;19959;-50
2023/07/18 08:36:16;;;;;;;;;;;36.50;35.90;;;30.76;39.33;95777.94;5015342;28;20346;-53
2023/07/18 08:38:49;;;;;;;;;;;36.70;35.60;;;30.77;38.33;95777.56;5020250;28;19916;-53
2023/07/18 08:41:21;;;;;;;;;;;36.70;35.40;;;30.86;38.42;95764.22;5015428;28;19920;-54
2023/07/18 08:43:48;;;;;;;;;;;36.90;35.20;;;30.64;39.66;95777.13;5028839;28;19913;-56
2023/07/18 08:46:16;;;;;;;;;;;37.00;34.80;;;30.76;38.50;95762.25;5019015;28;19913;-50
2023/07/18 08:48:45;;;;;;;;;;;37.00;34.60;;;30.70;38.97;95766.53;5013438;28;20000;-50
2023/07/18 08:51:13;;;;;;;;;;;37.10;34.50;;;30.65;39.06;95766.94;5016177;28;19909;-51
2023/07/18 08:53:41;;;;;;;;;;;37.20;34.40;;;30.94;39.13;95765.03;5010668;28;19909;-52
2023/07/18 08:56:10;;;;;;;;;;;37.20;34.20;;;31.39;38.04;95776.44;5018015;28;19931;-53
2023/07/18 08:58:37;;;;;;;;;;;37.30;34.30;;;31.50;37.66;95782.72;5017989;28;19916;-51
2023/07/18 09:01:04;;;;;;;;;;;37.50;34.20;;;31.75;37.32;95788.19;5018264;28;20007;-48
2023/07/18 09:03:30;;;;;;;;;;;37.60;34.10;;;32.10;36.96;95788.50;5026158;28;19936;-55
2023/07/18 09:05:57;;;;;;;;;;;37.90;34.00;;;32.40;36.15;95790.72;5015825;28;19916;-54
2023/07/18 09:08:23;;;;;;;;;;;38.20;34.00;;;32.39;36.47;95791.91;5012627;28;19916;-56
2023/07/18 09:11:02;;;;;;;;;;;38.50;33.80;;;32.64;36.00;95783.53;5019247;28;20119;-58
2023/07/18 09:13:28;;;;;;;;;;;38.70;33.30;;;32.79;35.00;95762.16;5014588;28;19980;-56
2023/07/18 09:15:53;;;;;;;;;;;38.80;32.90;;;32.83;34.82;95746.38;5017245;28;20011;-51
2023/07/18 09:18:19;;;;;;;;;;;38.90;32.80;;;32.75;36.27;95731.06;5025821;28;19943;-53
2023/07/18 09:20:45;;;;;;;;;;;39.10;32.60;;;32.47;36.50;95727.31;5031127;28;19915;-55
2023/07/18 09:23:13;;;;;;;;;;;39.10;32.30;;;32.13;37.01;95711.34;5029709;28;19935;-52
2023/07/18 09:25:43;;;;;;;;;;;39.10;32.70;;;32.27;36.41;95724.25;5007878;28;19923;-53
2023/07/18 09:28:13;;;;;;;;;;;39.10;32.00;;;32.40;36.19;95719.03;5030875;28;19916;-58
2023/07/18 09:30:39;;;;;;;;;;;39.00;31.90;;;32.25;38.03;95726.63;5018166;28;19912;-56
2023/07/18 09:33:06;;;;;;;;;;;38.80;31.80;;;32.24;37.62;95734.09;5030999;28;19915;-54
2023/07/18 09:35:42;;;;;;;;;;;38.70;31.90;;;32.12;37.83;95745.56;5029841;28;20375;-53
2023/07/18 09:38:10;;;;;;;;;;;38.70;32.10;;;32.29;36.28;95738.41;5030824;28;20003;-56
2023/07/18 09:40:39;;;;;;;;;;;38.50;32.00;;;32.28;35.82;95720.31;5046438;28;19909;-56
2023/07/18 09:43:05;;;;;;;;;;;38.60;32.60;;;32.32;36.35;95710.06;5024316;28;19915;-55
2023/07/18 09:45:32;;;;;;;;;;;38.70;31.90;;;32.42;36.07;95716.69;5046144;28;19913;-58
2023/07/18 09:47:58;;;;;;;;;;;38.80;31.80;;;32.61;36.07;95724.44;5030999;28;20556;-54
2023/07/18 09:50:26;;;;;;;;;;;39.00;31.70;;;32.64;35.75;95726.41;5031390;28;19963;-52
2023/07/18 09:52:57;;;;;;;;;;;39.20;31.40;;;32.42;35.89;95727.72;5046723;28;20019;-54
2023/07/18 09:55:26;;;;;;;;;;;39.40;31.20;;;32.35;37.42;95730.50;5024158;28;19908;-53
2023/07/18 09:57:55;;;;;;;;;;;39.60;31.00;;;33.29;35.76;95739.72;5034406;28;19909;-55
2023/07/18 10:00:24;;;;;;;;;;;40.00;30.90;;;33.56;34.40;95759.97;5027963;28;20342;-55
2023/07/18 10:02:54;;;;;;;;;;;40.50;31.00;;;33.60;33.70;95776.50;5034096;28;20377;-55
2023/07/18 10:05:20;;;;;;;;;;;40.70;30.80;;;33.61;33.62;95802.91;5039267;28;19928;-52
2023/07/18 10:07:47;;;;;;;;;;;40.70;30.60;;;33.14;34.98;95819.84;5026288;28;20337;-55
2023/07/18 10:10:14;;;;;;;;;;;40.40;30.50;;;32.95;34.48;95814.84;5024199;28;19909;-56
2023/07/18 10:12:55;;;;;;;;;;;40.40;30.40;;;32.90;35.97;95807.75;5018621;28;19956;-57
2023/07/18 10:15:22;;;;;;;;;;;40.30;30.30;;;33.08;35.70;95796.63;5025681;28;20369;-54
2023/07/18 10:17:49;;;;;;;;;;;40.20;30.20;;;32.95;35.76;95777.00;5005342;28;19960;-52
2023/07/18 10:20:24;;;;;;;;;;;40.20;30.10;;;32.69;35.92;95772.84;5016624;28;20314;-55
2023/07/18 10:22:58;;;;;;;;;;;39.90;30.30;;;32.24;36.80;95756.13;5020013;28;20319;-56
2023/07/18 10:25:29;;;;;;;;;;;39.60;30.20;;;32.09;37.52;95738.13;5007560;28;19913;-56
2023/07/18 10:27:57;;;;;;;;;;;39.40;30.20;;;31.92;37.22;95736.22;5034410;28;19909;-56
2023/07/18 10:30:24;;;;;;;;;;;39.30;30.00;;;32.23;37.52;95726.25;5021657;28;20270;-56
2023/07/18 10:32:51;;;;;;;;;;;39.20;30.00;;;32.47;35.38;95713.53;5033970;28;20371;-55
2023/07/18 10:35:19;;;;;;;;;;;39.20;30.00;;;32.11;36.90;95699.94;5031443;28;19999;-56
2023/07/18 10:37:54;;;;;;;;;;;39.20;29.90;;;32.43;36.31;95693.44;5031255;28;19917;-49
2023/07/18 10:40:43;;;;;;;;;;;39.20;30.50;;;32.44;35.96;95692.28;5029262;28;19965;-49
2023/07/18 10:43:20;;;;;;;;;;;39.30;29.90;;;32.63;35.92;95677.19;5014924;28;19920;-49
2023/07/18 10:45:46;;;;;;;;;;;39.30;29.90;;;32.98;35.57;95680.88;5022227;28;19956;-55
2023/07/18 10:48:19;;;;;;;;;;;39.40;29.90;;;33.02;36.05;95674.13;5027072;28;19974;-57
2023/07/18 10:50:47;;;;;;;;;;;39.70;29.90;;;33.40;34.77;95682.41;5026498;28;19913;-50
2023/07/18 10:53:17;;;;;;;;;;;40.10;29.80;;;33.46;35.00;95700.09;5031473;28;19932;-52
2023/07/18 10:55:45;;;;;;;;;;;40.60;29.60;;;33.15;33.68;95724.84;5025239;28;19909;-52
2023/07/18 10:58:18;;;;;;;;;;;40.70;29.60;;;33.07;34.19;95761.19;5034829;28;19908;-49
2023/07/18 11:00:45;;;;;;;;;;;40.40;29.70;;;33.04;34.94;95815.19;5026468;28;20401;-49
2023/07/18 11:03:34;;;;;;;;;;;39.90;29.90;;;32.63;36.06;95948.16;5028241;28;20394;-49
2023/07/18 11:06:06;;;;;;;;;;;39.20;30.00;;;32.10;37.79;96023.44;5013606;28;19928;-49
2023/07/18 11:08:32;;;;;;;;;;;38.50;30.30;;;31.00;38.67;96043.22;5024420;28;19908;-49
2023/07/18 11:11:03;;;;;;;;;;;37.80;30.60;;;30.36;39.78;96030.63;5022690;28;19982;-50
2023/07/18 11:13:36;;;;;;;;;;;37.10;30.80;;;29.99;40.42;96074.63;5024989;28;19955;-48
2023/07/18 11:16:14;;;;;;;;;;;36.40;31.10;;;29.55;46.06;96067.13;5031529;28;19908;-53
2023/07/18 11:18:48;;;;;;;;;;;35.70;31.60;;;28.95;47.87;96076.19;5017432;28;19932;-50